sensor_id;sensor_type;location;lat;lon;timestamp;P1;durP1;ratioP1;P2;durP2;ratioP2
63690;SDS011;49837;57.280;27.070;2023-03-21T00:00:57;3.2;;;2.7;;
63690;SDS011;49837;57.280;27.070;2023-03-21T00:01:57;3.7;;;2.5;;
63690;SDS011;49837;57.280;27.070;2023-03-21T00:02:58;3.2;;;2.5;;
63690;SDS011;49837;57.280;27.070;2023-03-21T00:03:58;3.3;;;2.9;;
63690;SDS011;49837;57.280;27.070;2023-03-21T00:04:59;2.9;;;2.6;;
63690;SDS011;49837;57.280;27.070;2023-03-21T00:06:04;3.4;;;2.6;;
63690;SDS011;49837;57.280;27.070;2023-03-21T00:07:03;3.2;;;2.8;;
63690;SDS011;49837;57.280;27.070;2023-03-21T00:08:04;2.7;;;2.4;;
63690;SDS011;49837;57.280;27.070;2023-03-21T00:09:04;2.8;;;2.6;;
63690;SDS011;49837;57.280;27.070;2023-03-21T00:10:05;4.4;;;3.0;;
63690;SDS011;49837;57.280;27.070;2023-03-21T00:11:09;3.3;;;2.9;;
63690;SDS011;49837;57.280;27.070;2023-03-21T00:12:09;3.6;;;2.9;;
63690;SDS011;49837;57.280;27.070;2023-03-21T00:13:10;3.5;;;3.0;;
63690;SDS011;49837;57.280;27.070;2023-03-21T00:14:10;3.2;;;2.7;;
63690;SDS011;49837;57.280;27.070;2023-03-21T00:15:10;3.6;;;2.9;;
63690;SDS011;49837;57.280;27.070;2023-03-21T00:16:11;3.6;;;3.1;;
63690;SDS011;49837;57.280;27.070;2023-03-21T00:17:11;3.3;;;2.8;;
63690;SDS011;49837;57.280;27.070;2023-03-21T00:18:11;4.4;;;2.8;;
63690;SDS011;49837;57.280;27.070;2023-03-21T00:19:12;3.3;;;2.8;;
63690;SDS011;49837;57.280;27.070;2023-03-21T00:20:12;3.3;;;2.8;;
63690;SDS011;49837;57.280;27.070;2023-03-21T00:21:16;8.7;;;4.1;;
63690;SDS011;49837;57.280;27.070;2023-03-21T00:22:14;3.5;;;3.0;;
63690;SDS011;49837;57.280;27.070;2023-03-21T00:23:15;3.6;;;3.1;;
63690;SDS011;49837;57.280;27.070;2023-03-21T00:24:15;3.8;;;2.9;;
63690;SDS011;49837;57.280;27.070;2023-03-21T00:25:16;5.4;;;3.3;;
63690;SDS011;49837;57.280;27.070;2023-03-21T00:26:16;3.6;;;3.0;;
63690;SDS011;49837;57.280;27.070;2023-03-21T00:27:16;3.7;;;3.0;;
63690;SDS011;49837;57.280;27.070;2023-03-21T00:28:19;4.1;;;3.1;;
63690;SDS011;49837;57.280;27.070;2023-03-21T00:29:20;3.8;;;3.0;;
63690;SDS011;49837;57.280;27.070;2023-03-21T00:30:20;3.9;;;2.9;;
63690;SDS011;49837;57.280;27.070;2023-03-21T00:31:20;3.9;;;3.0;;
63690;SDS011;49837;57.280;27.070;2023-03-21T00:32:20;3.9;;;3.1;;
63690;SDS011;49837;57.280;27.070;2023-03-21T00:33:21;4.6;;;3.2;;
63690;SDS011;49837;57.280;27.070;2023-03-21T00:34:21;3.5;;;3.2;;
63690;SDS011;49837;57.280;27.070;2023-03-21T00:35:23;3.4;;;3.1;;
63690;SDS011;49837;57.280;27.070;2023-03-21T00:36:27;3.3;;;2.8;;
63690;SDS011;49837;57.280;27.070;2023-03-21T00:37:27;3.8;;;3.0;;
63690;SDS011;49837;57.280;27.070;2023-03-21T00:38:27;4.0;;;3.1;;
63690;SDS011;49837;57.280;27.070;2023-03-21T00:39:28;3.6;;;3.0;;
63690;SDS011;49837;57.280;27.070;2023-03-21T00:40:28;3.3;;;2.8;;
63690;SDS011;49837;57.280;27.070;2023-03-21T00:41:31;4.2;;;3.0;;
63690;SDS011;49837;57.280;27.070;2023-03-21T00:42:33;4.2;;;3.2;;
63690;SDS011;49837;57.280;27.070;2023-03-21T00:43:34;4.8;;;3.2;;
63690;SDS011;49837;57.280;27.070;2023-03-21T00:44:34;4.0;;;3.2;;
63690;SDS011;49837;57.280;27.070;2023-03-21T00:45:34;4.4;;;3.4;;
63690;SDS011;49837;57.280;27.070;2023-03-21T00:46:35;4.0;;;3.4;;
63690;SDS011;49837;57.280;27.070;2023-03-21T00:47:37;5.9;;;4.0;;
63690;SDS011;49837;57.280;27.070;2023-03-21T00:48:37;4.4;;;3.4;;
63690;SDS011;49837;57.280;27.070;2023-03-21T00:49:38;3.7;;;3.2;;
63690;SDS011;49837;57.280;27.070;2023-03-21T00:50:38;4.3;;;3.2;;
63690;SDS011;49837;57.280;27.070;2023-03-21T00:51:38;5.3;;;4.0;;
63690;SDS011;49837;57.280;27.070;2023-03-21T00:52:39;4.2;;;3.4;;
63690;SDS011;49837;57.280;27.070;2023-03-21T00:53:39;3.7;;;3.3;;
63690;SDS011;49837;57.280;27.070;2023-03-21T00:54:40;4.8;;;3.6;;
63690;SDS011;49837;57.280;27.070;2023-03-21T00:55:40;4.4;;;3.6;;
63690;SDS011;49837;57.280;27.070;2023-03-21T00:56:40;3.7;;;3.2;;
63690;SDS011;49837;57.280;27.070;2023-03-21T00:57:41;4.0;;;3.2;;
63690;SDS011;49837;57.280;27.070;2023-03-21T00:58:43;4.0;;;3.3;;
63690;SDS011;49837;57.280;27.070;2023-03-21T00:59:43;3.7;;;3.3;;
63690;SDS011;49837;57.280;27.070;2023-03-21T01:00:44;4.8;;;3.5;;
63690;SDS011;49837;57.280;27.070;2023-03-21T01:01:44;4.7;;;3.5;;
63690;SDS011;49837;57.280;27.070;2023-03-21T01:02:44;5.9;;;3.7;;
63690;SDS011;49837;57.280;27.070;2023-03-21T01:03:45;4.3;;;3.7;;
63690;SDS011;49837;57.280;27.070;2023-03-21T01:04:45;4.1;;;3.3;;
63690;SDS011;49837;57.280;27.070;2023-03-21T01:05:46;3.8;;;3.1;;
63690;SDS011;49837;57.280;27.070;2023-03-21T01:06:46;4.2;;;3.2;;
63690;SDS011;49837;57.280;27.070;2023-03-21T01:07:46;4.9;;;3.4;;
63690;SDS011;49837;57.280;27.070;2023-03-21T01:08:47;5.8;;;3.4;;
63690;SDS011;49837;57.280;27.070;2023-03-21T01:09:49;5.0;;;3.6;;
63690;SDS011;49837;57.280;27.070;2023-03-21T01:10:50;4.6;;;3.4;;
63690;SDS011;49837;57.280;27.070;2023-03-21T01:11:50;4.1;;;3.5;;
63690;SDS011;49837;57.280;27.070;2023-03-21T01:12:50;3.7;;;3.3;;
63690;SDS011;49837;57.280;27.070;2023-03-21T01:13:51;5.0;;;3.3;;
63690;SDS011;49837;57.280;27.070;2023-03-21T01:14:53;4.0;;;3.1;;
63690;SDS011;49837;57.280;27.070;2023-03-21T01:15:54;3.7;;;3.1;;
63690;SDS011;49837;57.280;27.070;2023-03-21T01:16:54;3.7;;;3.3;;
63690;SDS011;49837;57.280;27.070;2023-03-21T01:17:54;3.7;;;3.2;;
63690;SDS011;49837;57.280;27.070;2023-03-21T01:18:54;4.3;;;3.3;;
63690;SDS011;49837;57.280;27.070;2023-03-21T01:19:55;3.8;;;3.3;;
63690;SDS011;49837;57.280;27.070;2023-03-21T01:20:56;3.7;;;3.1;;
63690;SDS011;49837;57.280;27.070;2023-03-21T01:21:56;4.0;;;3.2;;
63690;SDS011;49837;57.280;27.070;2023-03-21T01:22:56;3.8;;;3.4;;
63690;SDS011;49837;57.280;27.070;2023-03-21T01:23:56;5.1;;;3.6;;
63690;SDS011;49837;57.280;27.070;2023-03-21T01:24:57;4.2;;;3.4;;
63690;SDS011;49837;57.280;27.070;2023-03-21T01:26:00;4.4;;;3.4;;
63690;SDS011;49837;57.280;27.070;2023-03-21T01:27:00;4.0;;;3.4;;
63690;SDS011;49837;57.280;27.070;2023-03-21T01:28:00;5.5;;;3.5;;
63690;SDS011;49837;57.280;27.070;2023-03-21T01:29:00;4.2;;;3.3;;
63690;SDS011;49837;57.280;27.070;2023-03-21T01:30:01;4.0;;;3.4;;
63690;SDS011;49837;57.280;27.070;2023-03-21T01:31:04;4.4;;;3.3;;
63690;SDS011;49837;57.280;27.070;2023-03-21T01:32:05;5.4;;;4.0;;
63690;SDS011;49837;57.280;27.070;2023-03-21T01:33:05;4.9;;;3.7;;
63690;SDS011;49837;57.280;27.070;2023-03-21T01:34:05;4.3;;;3.4;;
63690;SDS011;49837;57.280;27.070;2023-03-21T01:35:06;4.9;;;3.5;;
63690;SDS011;49837;57.280;27.070;2023-03-21T01:36:06;3.8;;;3.4;;
63690;SDS011;49837;57.280;27.070;2023-03-21T01:37:09;4.4;;;3.6;;
63690;SDS011;49837;57.280;27.070;2023-03-21T01:38:10;4.5;;;3.4;;
63690;SDS011;49837;57.280;27.070;2023-03-21T01:39:10;4.1;;;3.5;;
63690;SDS011;49837;57.280;27.070;2023-03-21T01:40:13;3.9;;;3.5;;
63690;SDS011;49837;57.280;27.070;2023-03-21T01:42:18;48.5;;;9.6;;
63690;SDS011;49837;57.280;27.070;2023-03-21T01:43:22;4.4;;;3.5;;
63690;SDS011;49837;57.280;27.070;2023-03-21T01:44:22;3.6;;;3.2;;
63690;SDS011;49837;57.280;27.070;2023-03-21T01:47:22;2.3;;;2.1;;
63690;SDS011;49837;57.280;27.070;2023-03-21T01:48:23;1.9;;;1.5;;
63690;SDS011;49837;57.280;27.070;2023-03-21T01:50:25;2.0;;;1.8;;
63690;SDS011;49837;57.280;27.070;2023-03-21T01:51:26;1.4;;;1.3;;
63690;SDS011;49837;57.280;27.070;2023-03-21T01:52:33;1.3;;;1.2;;
63690;SDS011;49837;57.280;27.070;2023-03-21T01:53:30;1.4;;;1.3;;
63690;SDS011;49837;57.280;27.070;2023-03-21T01:54:31;1.1;;;1.1;;
63690;SDS011;49837;57.280;27.070;2023-03-21T01:55:31;1.2;;;1.1;;
63690;SDS011;49837;57.280;27.070;2023-03-21T01:56:35;1.0;;;1.0;;
63690;SDS011;49837;57.280;27.070;2023-03-21T01:57:39;1.2;;;1.1;;
63690;SDS011;49837;57.280;27.070;2023-03-21T01:58:37;0.9;;;0.9;;
63690;SDS011;49837;57.280;27.070;2023-03-21T01:59:47;1.2;;;1.1;;
63690;SDS011;49837;57.280;27.070;2023-03-21T02:00:41;1.0;;;1.0;;
63690;SDS011;49837;57.280;27.070;2023-03-21T02:01:42;1.1;;;1.0;;
63690;SDS011;49837;57.280;27.070;2023-03-21T02:02:42;1.0;;;1.0;;
63690;SDS011;49837;57.280;27.070;2023-03-21T02:03:43;0.9;;;0.9;;
63690;SDS011;49837;57.280;27.070;2023-03-21T02:04:43;0.9;;;0.9;;
63690;SDS011;49837;57.280;27.070;2023-03-21T02:05:50;1.0;;;1.0;;
63690;SDS011;49837;57.280;27.070;2023-03-21T02:06:58;1.3;;;0.9;;
63690;SDS011;49837;57.280;27.070;2023-03-21T02:07:45;0.8;;;0.8;;
63690;SDS011;49837;57.280;27.070;2023-03-21T02:08:45;0.7;;;0.7;;
63690;SDS011;49837;57.280;27.070;2023-03-21T02:09:46;0.7;;;0.7;;
63690;SDS011;49837;57.280;27.070;2023-03-21T02:10:46;0.9;;;0.9;;
63690;SDS011;49837;57.280;27.070;2023-03-21T02:11:46;0.8;;;0.8;;
63690;SDS011;49837;57.280;27.070;2023-03-21T02:12:46;0.7;;;0.7;;
63690;SDS011;49837;57.280;27.070;2023-03-21T02:13:47;0.7;;;0.7;;
63690;SDS011;49837;57.280;27.070;2023-03-21T02:14:49;0.8;;;0.8;;
63690;SDS011;49837;57.280;27.070;2023-03-21T02:16:04;0.8;;;0.8;;
63690;SDS011;49837;57.280;27.070;2023-03-21T02:17:01;1.2;;;0.8;;
63690;SDS011;49837;57.280;27.070;2023-03-21T02:17:57;0.7;;;0.7;;
63690;SDS011;49837;57.280;27.070;2023-03-21T02:18:55;0.8;;;0.8;;
63690;SDS011;49837;57.280;27.070;2023-03-21T02:21:03;0.6;;;0.6;;
63690;SDS011;49837;57.280;27.070;2023-03-21T02:22:15;0.8;;;0.8;;
63690;SDS011;49837;57.280;27.070;2023-03-21T02:23:08;0.8;;;0.8;;
63690;SDS011;49837;57.280;27.070;2023-03-21T02:27:14;0.8;;;0.8;;
63690;SDS011;49837;57.280;27.070;2023-03-21T02:28:13;0.7;;;0.7;;
63690;SDS011;49837;57.280;27.070;2023-03-21T02:29:20;0.9;;;0.9;;
63690;SDS011;49837;57.280;27.070;2023-03-21T02:30:25;1.4;;;0.9;;
63690;SDS011;49837;57.280;27.070;2023-03-21T02:31:25;0.7;;;0.7;;
63690;SDS011;49837;57.280;27.070;2023-03-21T02:32:30;0.8;;;0.8;;
63690;SDS011;49837;57.280;27.070;2023-03-21T02:36:49;0.8;;;0.8;;
63690;SDS011;49837;57.280;27.070;2023-03-21T02:37:41;0.9;;;0.9;;
63690;SDS011;49837;57.280;27.070;2023-03-21T02:39:39;1.3;;;1.1;;
63690;SDS011;49837;57.280;27.070;2023-03-21T02:40:34;0.9;;;0.9;;
63690;SDS011;49837;57.280;27.070;2023-03-21T02:41:45;0.9;;;0.9;;
63690;SDS011;49837;57.280;27.070;2023-03-21T02:42:44;0.8;;;0.8;;
63690;SDS011;49837;57.280;27.070;2023-03-21T02:44:45;0.9;;;0.9;;
63690;SDS011;49837;57.280;27.070;2023-03-21T02:45:47;0.8;;;0.8;;
63690;SDS011;49837;57.280;27.070;2023-03-21T02:48:07;1.1;;;1.0;;
63690;SDS011;49837;57.280;27.070;2023-03-21T02:51:03;1.7;;;1.1;;
63690;SDS011;49837;57.280;27.070;2023-03-21T02:52:03;1.0;;;1.0;;
63690;SDS011;49837;57.280;27.070;2023-03-21T02:53:07;1.0;;;1.0;;
63690;SDS011;49837;57.280;27.070;2023-03-21T02:54:11;1.2;;;1.1;;
63690;SDS011;49837;57.280;27.070;2023-03-21T02:55:16;1.2;;;1.1;;
63690;SDS011;49837;57.280;27.070;2023-03-21T02:56:13;1.3;;;1.2;;
63690;SDS011;49837;57.280;27.070;2023-03-21T02:57:14;1.1;;;1.1;;
63690;SDS011;49837;57.280;27.070;2023-03-21T02:58:16;1.3;;;1.2;;
63690;SDS011;49837;57.280;27.070;2023-03-21T02:59:16;1.2;;;1.1;;
63690;SDS011;49837;57.280;27.070;2023-03-21T03:00:17;1.3;;;1.2;;
63690;SDS011;49837;57.280;27.070;2023-03-21T03:01:19;1.4;;;1.3;;
63690;SDS011;49837;57.280;27.070;2023-03-21T03:02:20;1.4;;;1.3;;
63690;SDS011;49837;57.280;27.070;2023-03-21T03:03:21;1.3;;;1.2;;
63690;SDS011;49837;57.280;27.070;2023-03-21T03:04:26;1.4;;;1.3;;
63690;SDS011;49837;57.280;27.070;2023-03-21T03:05:26;1.4;;;1.2;;
63690;SDS011;49837;57.280;27.070;2023-03-21T03:07:35;1.3;;;1.2;;
63690;SDS011;49837;57.280;27.070;2023-03-21T03:09:45;1.4;;;1.3;;
63690;SDS011;49837;57.280;27.070;2023-03-21T03:10:46;1.5;;;1.4;;
63690;SDS011;49837;57.280;27.070;2023-03-21T03:11:44;1.6;;;1.4;;
63690;SDS011;49837;57.280;27.070;2023-03-21T03:15:02;1.7;;;1.5;;
63690;SDS011;49837;57.280;27.070;2023-03-21T03:16:01;1.6;;;1.5;;
63690;SDS011;49837;57.280;27.070;2023-03-21T03:17:08;1.6;;;1.5;;
63690;SDS011;49837;57.280;27.070;2023-03-21T03:19:03;1.6;;;1.5;;
63690;SDS011;49837;57.280;27.070;2023-03-21T03:23:26;1.7;;;1.6;;
63690;SDS011;49837;57.280;27.070;2023-03-21T03:24:16;1.6;;;1.5;;
63690;SDS011;49837;57.280;27.070;2023-03-21T03:25:11;2.0;;;1.8;;
63690;SDS011;49837;57.280;27.070;2023-03-21T03:26:16;1.7;;;1.6;;
63690;SDS011;49837;57.280;27.070;2023-03-21T03:27:14;1.6;;;1.5;;
63690;SDS011;49837;57.280;27.070;2023-03-21T03:28:15;1.9;;;1.6;;
63690;SDS011;49837;57.280;27.070;2023-03-21T03:29:17;1.5;;;1.4;;
63690;SDS011;49837;57.280;27.070;2023-03-21T03:30:18;1.7;;;1.6;;
63690;SDS011;49837;57.280;27.070;2023-03-21T03:31:20;1.6;;;1.5;;
63690;SDS011;49837;57.280;27.070;2023-03-21T03:32:22;1.5;;;1.4;;
63690;SDS011;49837;57.280;27.070;2023-03-21T03:33:27;1.5;;;1.4;;
63690;SDS011;49837;57.280;27.070;2023-03-21T03:34:28;1.6;;;1.5;;
63690;SDS011;49837;57.280;27.070;2023-03-21T03:35:30;1.9;;;1.6;;
63690;SDS011;49837;57.280;27.070;2023-03-21T03:36:32;1.6;;;1.4;;
63690;SDS011;49837;57.280;27.070;2023-03-21T03:37:33;1.7;;;1.6;;
63690;SDS011;49837;57.280;27.070;2023-03-21T03:38:34;1.8;;;1.5;;
63690;SDS011;49837;57.280;27.070;2023-03-21T03:39:39;1.4;;;1.3;;
63690;SDS011;49837;57.280;27.070;2023-03-21T03:40:39;1.6;;;1.5;;
63690;SDS011;49837;57.280;27.070;2023-03-21T03:41:56;1.5;;;1.4;;
63690;SDS011;49837;57.280;27.070;2023-03-21T03:42:50;1.8;;;1.6;;
63690;SDS011;49837;57.280;27.070;2023-03-21T03:43:48;1.7;;;1.6;;
63690;SDS011;49837;57.280;27.070;2023-03-21T03:44:48;1.5;;;1.4;;
63690;SDS011;49837;57.280;27.070;2023-03-21T03:45:49;1.5;;;1.4;;
63690;SDS011;49837;57.280;27.070;2023-03-21T03:46:55;2.3;;;1.5;;
63690;SDS011;49837;57.280;27.070;2023-03-21T03:48:12;1.5;;;1.4;;
63690;SDS011;49837;57.280;27.070;2023-03-21T03:49:07;1.4;;;1.3;;
63690;SDS011;49837;57.280;27.070;2023-03-21T03:50:07;1.5;;;1.4;;
63690;SDS011;49837;57.280;27.070;2023-03-21T03:51:24;1.6;;;1.5;;
63690;SDS011;49837;57.280;27.070;2023-03-21T03:52:12;1.5;;;1.4;;
63690;SDS011;49837;57.280;27.070;2023-03-21T03:54:18;1.5;;;1.4;;
63690;SDS011;49837;57.280;27.070;2023-03-21T03:55:20;1.4;;;1.3;;
63690;SDS011;49837;57.280;27.070;2023-03-21T03:56:20;1.6;;;1.5;;
63690;SDS011;49837;57.280;27.070;2023-03-21T03:57:21;1.4;;;1.3;;
63690;SDS011;49837;57.280;27.070;2023-03-21T03:58:22;1.4;;;1.3;;
63690;SDS011;49837;57.280;27.070;2023-03-21T03:59:24;1.3;;;1.2;;
63690;SDS011;49837;57.280;27.070;2023-03-21T04:00:24;1.4;;;1.3;;
63690;SDS011;49837;57.280;27.070;2023-03-21T04:01:24;1.6;;;1.4;;
63690;SDS011;49837;57.280;27.070;2023-03-21T04:02:24;1.3;;;1.2;;
63690;SDS011;49837;57.280;27.070;2023-03-21T04:03:25;1.3;;;1.2;;
63690;SDS011;49837;57.280;27.070;2023-03-21T04:04:25;1.3;;;1.2;;
63690;SDS011;49837;57.280;27.070;2023-03-21T04:05:26;1.4;;;1.3;;
63690;SDS011;49837;57.280;27.070;2023-03-21T04:06:26;1.4;;;1.3;;
63690;SDS011;49837;57.280;27.070;2023-03-21T04:07:26;1.4;;;1.3;;
63690;SDS011;49837;57.280;27.070;2023-03-21T04:08:27;1.2;;;1.2;;
63690;SDS011;49837;57.280;27.070;2023-03-21T04:09:27;1.4;;;1.3;;
63690;SDS011;49837;57.280;27.070;2023-03-21T04:10:30;1.5;;;1.4;;
63690;SDS011;49837;57.280;27.070;2023-03-21T04:11:30;1.6;;;1.5;;
63690;SDS011;49837;57.280;27.070;2023-03-21T04:12:30;1.5;;;1.4;;
63690;SDS011;49837;57.280;27.070;2023-03-21T04:13:31;1.3;;;1.2;;
63690;SDS011;49837;57.280;27.070;2023-03-21T04:14:31;1.4;;;1.3;;
63690;SDS011;49837;57.280;27.070;2023-03-21T04:15:36;1.5;;;1.4;;
63690;SDS011;49837;57.280;27.070;2023-03-21T04:16:36;1.4;;;1.3;;
63690;SDS011;49837;57.280;27.070;2023-03-21T04:17:37;1.3;;;1.2;;
63690;SDS011;49837;57.280;27.070;2023-03-21T04:18:37;1.3;;;1.2;;
63690;SDS011;49837;57.280;27.070;2023-03-21T04:19:38;1.4;;;1.3;;
63690;SDS011;49837;57.280;27.070;2023-03-21T04:20:38;1.6;;;1.4;;
63690;SDS011;49837;57.280;27.070;2023-03-21T04:21:39;1.6;;;1.5;;
63690;SDS011;49837;57.280;27.070;2023-03-21T04:22:39;1.4;;;1.3;;
63690;SDS011;49837;57.280;27.070;2023-03-21T04:23:40;1.6;;;1.5;;
63690;SDS011;49837;57.280;27.070;2023-03-21T04:24:40;1.3;;;1.2;;
63690;SDS011;49837;57.280;27.070;2023-03-21T04:25:40;1.5;;;1.4;;
63690;SDS011;49837;57.280;27.070;2023-03-21T04:26:41;2.0;;;1.9;;
63690;SDS011;49837;57.280;27.070;2023-03-21T04:27:41;1.8;;;1.5;;
63690;SDS011;49837;57.280;27.070;2023-03-21T04:28:42;1.4;;;1.3;;
63690;SDS011;49837;57.280;27.070;2023-03-21T04:29:42;1.5;;;1.4;;
63690;SDS011;49837;57.280;27.070;2023-03-21T04:30:43;1.4;;;1.3;;
63690;SDS011;49837;57.280;27.070;2023-03-21T04:31:47;1.4;;;1.3;;
63690;SDS011;49837;57.280;27.070;2023-03-21T04:32:47;1.4;;;1.3;;
63690;SDS011;49837;57.280;27.070;2023-03-21T04:33:47;1.5;;;1.4;;
63690;SDS011;49837;57.280;27.070;2023-03-21T04:34:49;1.4;;;1.3;;
63690;SDS011;49837;57.280;27.070;2023-03-21T04:35:48;1.4;;;1.3;;
63690;SDS011;49837;57.280;27.070;2023-03-21T04:36:49;1.5;;;1.4;;
63690;SDS011;49837;57.280;27.070;2023-03-21T04:37:49;1.4;;;1.3;;
63690;SDS011;49837;57.280;27.070;2023-03-21T04:38:49;1.7;;;1.6;;
63690;SDS011;49837;57.280;27.070;2023-03-21T04:39:50;1.7;;;1.6;;
63690;SDS011;49837;57.280;27.070;2023-03-21T04:40:50;1.5;;;1.4;;
63690;SDS011;49837;57.280;27.070;2023-03-21T04:41:50;1.5;;;1.4;;
63690;SDS011;49837;57.280;27.070;2023-03-21T04:42:51;1.4;;;1.3;;
63690;SDS011;49837;57.280;27.070;2023-03-21T04:43:51;1.4;;;1.3;;
63690;SDS011;49837;57.280;27.070;2023-03-21T04:44:51;1.4;;;1.3;;
63690;SDS011;49837;57.280;27.070;2023-03-21T04:45:52;1.2;;;1.2;;
63690;SDS011;49837;57.280;27.070;2023-03-21T04:46:52;1.5;;;1.4;;
63690;SDS011;49837;57.280;27.070;2023-03-21T04:47:53;1.3;;;1.2;;
63690;SDS011;49837;57.280;27.070;2023-03-21T04:48:53;1.3;;;1.2;;
63690;SDS011;49837;57.280;27.070;2023-03-21T04:49:53;1.3;;;1.2;;
63690;SDS011;49837;57.280;27.070;2023-03-21T04:50:54;1.4;;;1.3;;
63690;SDS011;49837;57.280;27.070;2023-03-21T04:51:54;1.4;;;1.3;;
63690;SDS011;49837;57.280;27.070;2023-03-21T04:52:54;1.3;;;1.2;;
63690;SDS011;49837;57.280;27.070;2023-03-21T04:53:56;1.3;;;1.1;;
63690;SDS011;49837;57.280;27.070;2023-03-21T04:54:55;1.2;;;1.1;;
63690;SDS011;49837;57.280;27.070;2023-03-21T04:55:55;1.3;;;1.2;;
63690;SDS011;49837;57.280;27.070;2023-03-21T04:56:56;1.3;;;1.2;;
63690;SDS011;49837;57.280;27.070;2023-03-21T04:57:56;1.4;;;1.3;;
63690;SDS011;49837;57.280;27.070;2023-03-21T04:59:01;1.2;;;1.2;;
63690;SDS011;49837;57.280;27.070;2023-03-21T04:59:58;1.5;;;1.2;;
63690;SDS011;49837;57.280;27.070;2023-03-21T05:00:59;1.4;;;1.3;;
63690;SDS011;49837;57.280;27.070;2023-03-21T05:01:59;1.3;;;1.2;;
63690;SDS011;49837;57.280;27.070;2023-03-21T05:02:59;1.4;;;1.3;;
63690;SDS011;49837;57.280;27.070;2023-03-21T05:04:00;1.3;;;1.2;;
63690;SDS011;49837;57.280;27.070;2023-03-21T05:05:01;1.4;;;1.3;;
63690;SDS011;49837;57.280;27.070;2023-03-21T05:06:00;1.3;;;1.2;;
63690;SDS011;49837;57.280;27.070;2023-03-21T05:07:01;1.3;;;1.2;;
63690;SDS011;49837;57.280;27.070;2023-03-21T05:08:01;1.1;;;1.0;;
63690;SDS011;49837;57.280;27.070;2023-03-21T05:09:02;1.4;;;1.3;;
63690;SDS011;49837;57.280;27.070;2023-03-21T05:10:02;1.1;;;1.1;;
63690;SDS011;49837;57.280;27.070;2023-03-21T05:11:03;1.2;;;1.1;;
63690;SDS011;49837;57.280;27.070;2023-03-21T05:12:03;1.3;;;1.2;;
63690;SDS011;49837;57.280;27.070;2023-03-21T05:13:03;1.3;;;1.2;;
63690;SDS011;49837;57.280;27.070;2023-03-21T05:14:04;1.3;;;1.2;;
63690;SDS011;49837;57.280;27.070;2023-03-21T05:15:04;1.4;;;1.1;;
63690;SDS011;49837;57.280;27.070;2023-03-21T05:16:04;1.2;;;1.1;;
63690;SDS011;49837;57.280;27.070;2023-03-21T05:17:04;1.4;;;1.3;;
63690;SDS011;49837;57.280;27.070;2023-03-21T05:18:05;1.2;;;1.1;;
63690;SDS011;49837;57.280;27.070;2023-03-21T05:19:05;1.7;;;1.6;;
63690;SDS011;49837;57.280;27.070;2023-03-21T05:20:06;1.4;;;1.3;;
63690;SDS011;49837;57.280;27.070;2023-03-21T05:21:06;1.6;;;1.5;;
63690;SDS011;49837;57.280;27.070;2023-03-21T05:22:07;1.4;;;1.3;;
63690;SDS011;49837;57.280;27.070;2023-03-21T05:23:10;1.3;;;1.2;;
63690;SDS011;49837;57.280;27.070;2023-03-21T05:24:08;1.6;;;1.3;;
63690;SDS011;49837;57.280;27.070;2023-03-21T05:25:09;1.1;;;1.1;;
63690;SDS011;49837;57.280;27.070;2023-03-21T05:26:09;1.5;;;1.4;;
63690;SDS011;49837;57.280;27.070;2023-03-21T05:27:10;1.1;;;1.1;;
63690;SDS011;49837;57.280;27.070;2023-03-21T05:28:10;1.3;;;1.2;;
63690;SDS011;49837;57.280;27.070;2023-03-21T05:29:10;1.4;;;1.3;;
63690;SDS011;49837;57.280;27.070;2023-03-21T05:30:11;1.2;;;1.1;;
63690;SDS011;49837;57.280;27.070;2023-03-21T05:31:13;1.2;;;1.1;;
63690;SDS011;49837;57.280;27.070;2023-03-21T05:32:13;1.2;;;1.1;;
63690;SDS011;49837;57.280;27.070;2023-03-21T05:33:13;1.1;;;1.0;;
63690;SDS011;49837;57.280;27.070;2023-03-21T05:34:14;1.0;;;1.0;;
63690;SDS011;49837;57.280;27.070;2023-03-21T05:35:14;1.1;;;1.0;;
63690;SDS011;49837;57.280;27.070;2023-03-21T05:36:14;1.2;;;1.1;;
63690;SDS011;49837;57.280;27.070;2023-03-21T05:37:15;0.9;;;0.9;;
63690;SDS011;49837;57.280;27.070;2023-03-21T05:38:15;0.9;;;0.9;;
63690;SDS011;49837;57.280;27.070;2023-03-21T05:39:16;0.9;;;0.9;;
63690;SDS011;49837;57.280;27.070;2023-03-21T05:40:16;0.8;;;0.8;;
63690;SDS011;49837;57.280;27.070;2023-03-21T05:41:17;1.2;;;1.1;;
63690;SDS011;49837;57.280;27.070;2023-03-21T05:42:17;0.8;;;0.8;;
63690;SDS011;49837;57.280;27.070;2023-03-21T05:43:17;1.0;;;1.0;;
63690;SDS011;49837;57.280;27.070;2023-03-21T05:44:17;0.9;;;0.9;;
63690;SDS011;49837;57.280;27.070;2023-03-21T05:45:18;1.0;;;1.0;;
63690;SDS011;49837;57.280;27.070;2023-03-21T05:46:18;1.2;;;1.1;;
63690;SDS011;49837;57.280;27.070;2023-03-21T05:47:19;1.2;;;1.1;;
63690;SDS011;49837;57.280;27.070;2023-03-21T05:48:19;0.9;;;0.9;;
63690;SDS011;49837;57.280;27.070;2023-03-21T05:49:19;1.0;;;1.0;;
63690;SDS011;49837;57.280;27.070;2023-03-21T05:50:20;1.1;;;1.0;;
63690;SDS011;49837;57.280;27.070;2023-03-21T05:51:20;0.9;;;0.9;;
63690;SDS011;49837;57.280;27.070;2023-03-21T05:52:21;0.9;;;0.9;;
63690;SDS011;49837;57.280;27.070;2023-03-21T05:53:21;0.8;;;0.8;;
63690;SDS011;49837;57.280;27.070;2023-03-21T05:54:21;0.9;;;0.9;;
63690;SDS011;49837;57.280;27.070;2023-03-21T05:55:22;0.9;;;0.9;;
63690;SDS011;49837;57.280;27.070;2023-03-21T05:56:22;1.0;;;0.9;;
63690;SDS011;49837;57.280;27.070;2023-03-21T05:57:23;0.9;;;0.9;;
63690;SDS011;49837;57.280;27.070;2023-03-21T05:58:23;1.0;;;1.0;;
63690;SDS011;49837;57.280;27.070;2023-03-21T05:59:23;0.8;;;0.8;;
63690;SDS011;49837;57.280;27.070;2023-03-21T06:00:23;0.9;;;0.9;;
63690;SDS011;49837;57.280;27.070;2023-03-21T06:01:24;1.1;;;1.1;;
63690;SDS011;49837;57.280;27.070;2023-03-21T06:02:24;1.3;;;1.2;;
63690;SDS011;49837;57.280;27.070;2023-03-21T06:03:26;1.3;;;1.2;;
63690;SDS011;49837;57.280;27.070;2023-03-21T06:04:25;1.2;;;1.1;;
63690;SDS011;49837;57.280;27.070;2023-03-21T06:05:25;1.1;;;1.0;;
63690;SDS011;49837;57.280;27.070;2023-03-21T06:06:26;1.0;;;1.0;;
63690;SDS011;49837;57.280;27.070;2023-03-21T06:07:26;0.9;;;0.9;;
63690;SDS011;49837;57.280;27.070;2023-03-21T06:08:26;1.0;;;1.0;;
63690;SDS011;49837;57.280;27.070;2023-03-21T06:09:27;1.1;;;1.0;;
63690;SDS011;49837;57.280;27.070;2023-03-21T06:10:27;0.9;;;0.9;;
63690;SDS011;49837;57.280;27.070;2023-03-21T06:11:28;1.0;;;0.9;;
63690;SDS011;49837;57.280;27.070;2023-03-21T06:12:28;0.9;;;0.9;;
63690;SDS011;49837;57.280;27.070;2023-03-21T06:13:28;0.9;;;0.9;;
63690;SDS011;49837;57.280;27.070;2023-03-21T06:14:29;0.9;;;0.9;;
63690;SDS011;49837;57.280;27.070;2023-03-21T06:15:29;0.9;;;0.9;;
63690;SDS011;49837;57.280;27.070;2023-03-21T06:16:29;0.8;;;0.8;;
63690;SDS011;49837;57.280;27.070;2023-03-21T06:17:30;0.9;;;0.9;;
63690;SDS011;49837;57.280;27.070;2023-03-21T06:18:30;0.8;;;0.8;;
63690;SDS011;49837;57.280;27.070;2023-03-21T06:19:31;0.7;;;0.7;;
63690;SDS011;49837;57.280;27.070;2023-03-21T06:20:31;0.9;;;0.9;;
63690;SDS011;49837;57.280;27.070;2023-03-21T06:21:31;1.1;;;1.1;;
63690;SDS011;49837;57.280;27.070;2023-03-21T06:22:32;0.9;;;0.9;;
63690;SDS011;49837;57.280;27.070;2023-03-21T06:23:32;0.8;;;0.8;;
63690;SDS011;49837;57.280;27.070;2023-03-21T06:24:32;1.0;;;1.0;;
63690;SDS011;49837;57.280;27.070;2023-03-21T06:25:33;1.2;;;1.1;;
63690;SDS011;49837;57.280;27.070;2023-03-21T06:26:33;0.9;;;0.9;;
63690;SDS011;49837;57.280;27.070;2023-03-21T06:27:34;0.9;;;0.9;;
63690;SDS011;49837;57.280;27.070;2023-03-21T06:28:34;0.9;;;0.9;;
63690;SDS011;49837;57.280;27.070;2023-03-21T06:29:34;0.9;;;0.9;;
63690;SDS011;49837;57.280;27.070;2023-03-21T06:30:35;0.9;;;0.9;;
63690;SDS011;49837;57.280;27.070;2023-03-21T06:31:35;0.8;;;0.8;;
63690;SDS011;49837;57.280;27.070;2023-03-21T06:32:35;0.8;;;0.8;;
63690;SDS011;49837;57.280;27.070;2023-03-21T06:33:36;0.8;;;0.8;;
63690;SDS011;49837;57.280;27.070;2023-03-21T06:34:36;0.8;;;0.8;;
63690;SDS011;49837;57.280;27.070;2023-03-21T06:35:36;0.8;;;0.8;;
63690;SDS011;49837;57.280;27.070;2023-03-21T06:36:37;0.8;;;0.8;;
63690;SDS011;49837;57.280;27.070;2023-03-21T06:37:37;0.8;;;0.8;;
63690;SDS011;49837;57.280;27.070;2023-03-21T06:38:38;1.0;;;0.8;;